createdAt,value
2019-06-07T00:02:20.290Z,3.00
2019-06-07T00:04:48.566Z,3.30
2019-06-07T00:07:17.877Z,3.30
2019-06-07T00:09:46.767Z,3.60
2019-06-07T00:12:17.571Z,3.60
2019-06-07T00:14:45.024Z,3.72
2019-06-07T00:17:15.356Z,3.35
2019-06-07T00:19:43.360Z,3.47
2019-06-07T00:22:18.383Z,3.72
2019-06-07T00:24:41.636Z,3.73
2019-06-07T00:27:11.234Z,3.50
2019-06-07T00:29:39.962Z,3.80
2019-06-07T00:32:09.281Z,3.30
2019-06-07T00:34:37.640Z,3.55
2019-06-07T00:37:07.072Z,3.55
2019-06-07T00:39:35.570Z,3.17
2019-06-07T00:42:03.864Z,3.50
2019-06-07T00:44:32.155Z,3.17
2019-06-07T00:47:00.403Z,3.58
2019-06-07T00:49:40.510Z,3.37
2019-06-07T00:51:58.701Z,3.85
2019-06-07T00:54:26.961Z,3.58
2019-06-07T00:57:16.728Z,3.47
2019-06-07T00:59:44.657Z,3.37
2019-06-07T01:02:14.638Z,3.92
2019-06-07T01:04:42.870Z,4.03
2019-06-07T01:07:11.141Z,3.35
2019-06-07T01:09:39.438Z,4.42
2019-06-07T01:12:07.699Z,4.05
2019-06-07T01:14:35.945Z,3.62
2019-06-07T01:17:27.572Z,4.00
2019-06-07T01:19:45.023Z,4.30
2019-06-07T01:22:15.970Z,3.92
2019-06-07T01:24:43.222Z,3.90
2019-06-07T01:27:11.561Z,3.70
2019-06-07T01:29:39.796Z,5.20
2019-06-07T01:32:08.063Z,4.97
2019-06-07T01:34:36.313Z,4.65
2019-06-07T01:37:04.579Z,5.05
2019-06-07T01:39:32.841Z,4.53
2019-06-07T01:42:01.102Z,3.75
2019-06-07T01:44:31.046Z,4.15
2019-06-07T01:46:59.296Z,4.08
2019-06-07T01:49:29.446Z,4.17
2019-06-07T01:51:57.565Z,4.40
2019-06-07T01:54:54.324Z,4.45
2019-06-07T01:56:55.852Z,4.20
2019-06-07T01:59:25.619Z,4.08
2019-06-07T02:01:54.061Z,4.37
2019-06-07T02:04:23.356Z,4.33
2019-06-07T02:06:52.298Z,3.85
2019-06-07T02:09:20.865Z,3.65
2019-06-07T02:11:49.292Z,3.87
2019-06-07T02:14:17.544Z,4.70
2019-06-07T02:16:45.921Z,4.42
2019-06-07T02:19:14.168Z,4.10
2019-06-07T02:21:42.403Z,4.40
2019-06-07T02:24:10.637Z,4.25
2019-06-07T02:26:38.868Z,4.05
2019-06-07T02:29:07.192Z,4.65
2019-06-07T02:31:39.386Z,4.30
2019-06-07T02:34:05.404Z,4.47
2019-06-07T02:36:41.036Z,4.40
2019-06-07T02:39:04.965Z,4.47
2019-06-07T02:41:39.371Z,4.35
2019-06-07T02:44:03.166Z,4.40
2019-06-07T02:46:40.041Z,3.83
2019-06-07T02:49:01.422Z,4.47
2019-06-07T02:51:40.028Z,4.40
2019-06-07T02:53:59.667Z,4.70
2019-06-07T02:56:42.165Z,4.75
2019-06-07T02:58:58.215Z,4.22
2019-06-07T03:01:28.581Z,5.00
2019-06-07T03:03:56.461Z,5.28
2019-06-07T03:06:27.051Z,4.45
2019-06-07T03:08:54.816Z,4.93
2019-06-07T03:11:23.057Z,5.30
2019-06-07T03:13:51.290Z,5.12
2019-06-07T03:16:21.189Z,5.17
2019-06-07T03:18:54.091Z,4.87
2019-06-07T03:21:28.193Z,4.97
2019-06-07T03:23:56.739Z,4.92
2019-06-07T03:26:27.617Z,4.87
2019-06-07T03:28:56.719Z,5.08
2019-06-07T03:31:31.801Z,5.75
2019-06-07T03:33:58.102Z,5.10
2019-06-07T03:36:27.508Z,5.20
2019-06-07T03:38:55.867Z,5.25
2019-06-07T03:41:24.111Z,5.42
2019-06-07T03:43:52.370Z,5.50
2019-06-07T03:46:20.664Z,4.95
2019-06-07T03:48:48.928Z,6.17
2019-06-07T03:51:26.904Z,5.97
2019-06-07T03:53:47.148Z,5.45
2019-06-07T03:56:15.888Z,5.03
2019-06-07T03:58:49.807Z,6.05
2019-06-07T04:01:14.410Z,5.95
2019-06-07T04:03:51.055Z,6.00
2019-06-07T04:06:12.644Z,6.40
2019-06-07T04:08:42.077Z,6.10
2019-06-07T04:11:10.697Z,6.50
2019-06-07T04:13:42.776Z,6.47
2019-06-07T04:16:08.988Z,6.10
2019-06-07T04:18:41.931Z,5.62
2019-06-07T04:21:07.265Z,5.85
2019-06-07T04:23:40.515Z,6.03
2019-06-07T04:26:05.540Z,6.22
2019-06-07T04:29:24.833Z,6.05
2019-06-07T04:31:03.837Z,5.58
2019-06-07T04:33:34.977Z,6.22
2019-06-07T04:36:02.137Z,6.40
2019-06-07T04:38:32.694Z,6.30
2019-06-07T04:41:00.389Z,6.87
2019-06-07T04:43:31.014Z,6.55
2019-06-07T04:45:58.609Z,6.63
2019-06-07T04:48:26.903Z,6.75
2019-06-07T04:50:55.185Z,6.47
2019-06-07T04:53:23.449Z,6.05
2019-06-07T04:55:51.681Z,6.10
2019-06-07T04:58:19.956Z,6.42
2019-06-07T05:00:54.008Z,6.40
2019-06-07T05:03:18.256Z,6.27
2019-06-07T05:05:46.507Z,6.60
2019-06-07T05:08:27.544Z,6.30
2019-06-07T05:10:44.734Z,6.40
2019-06-07T05:13:15.451Z,6.42
2019-06-07T05:15:43.702Z,6.58
2019-06-07T05:18:11.976Z,6.55
2019-06-07T05:20:41.521Z,6.50
2019-06-07T05:23:10.209Z,6.37
2019-06-07T05:25:42.242Z,6.22
2019-06-07T05:28:08.451Z,6.37
2019-06-07T05:33:10.496Z,6.30
2019-06-07T05:35:41.795Z,5.95
2019-06-07T05:38:08.701Z,6.70
2019-06-07T05:40:48.716Z,6.00
2019-06-07T05:43:27.652Z,5.95
2019-06-07T05:45:55.910Z,6.15
2019-06-07T05:48:24.236Z,5.83
2019-06-07T05:50:56.874Z,6.30
2019-06-07T05:53:22.462Z,6.15
2019-06-07T05:55:50.715Z,5.58
2019-06-07T05:58:19.210Z,5.87
2019-06-07T06:00:48.003Z,6.87
2019-06-07T06:03:16.414Z,6.58
2019-06-07T06:05:53.961Z,6.20
2019-06-07T06:08:14.728Z,7.03
2019-06-07T06:10:48.342Z,5.50
2019-06-07T06:13:12.991Z,6.40
2019-06-07T06:15:54.412Z,6.40
2019-06-07T06:18:11.969Z,5.87
2019-06-07T06:21:05.365Z,5.17
2019-06-07T06:23:10.203Z,5.70
2019-06-07T06:25:41.484Z,6.75
2019-06-07T06:28:12.264Z,6.10
2019-06-07T06:30:38.445Z,5.90
2019-06-07T06:33:06.806Z,5.80
2019-06-07T06:35:35.059Z,5.08
2019-06-07T06:38:03.325Z,4.90
2019-06-07T06:40:31.565Z,4.50
2019-06-07T06:43:00.618Z,4.62
2019-06-07T06:45:28.862Z,4.12
2019-06-07T06:47:57.093Z,4.10
2019-06-07T06:50:25.342Z,3.70
2019-06-07T06:52:54.659Z,3.60
2019-06-07T06:55:23.441Z,4.05
2019-06-07T06:57:52.999Z,3.40
2019-06-07T07:00:43.571Z,3.70
2019-06-07T07:03:47.427Z,3.25
2019-06-07T07:05:30.539Z,3.53
2019-06-07T07:07:58.829Z,3.30
2019-06-07T07:10:46.007Z,3.27
2019-06-07T07:13:15.009Z,3.60
2019-06-07T07:15:44.752Z,3.80
2019-06-07T07:18:13.224Z,3.97
2019-06-07T07:20:43.545Z,3.60
2019-06-07T07:23:11.506Z,3.77
2019-06-07T07:25:39.918Z,3.60
2019-06-07T07:28:08.565Z,3.83
2019-06-07T07:30:50.007Z,3.20
2019-06-07T07:33:18.187Z,3.05
2019-06-07T07:36:08.111Z,3.60
2019-06-07T07:38:16.421Z,3.30
2019-06-07T07:43:14.648Z,2.77
2019-06-07T07:45:45.907Z,2.95
2019-06-07T07:48:17.733Z,3.20
2019-06-07T07:50:45.134Z,2.80
2019-06-07T07:53:12.881Z,2.80
2019-06-07T07:55:41.150Z,2.40
2019-06-07T07:58:09.389Z,2.85
2019-06-07T08:01:08.986Z,3.02
2019-06-07T08:03:09.312Z,2.80
2019-06-07T08:05:43.051Z,2.83
2019-06-07T08:08:08.034Z,2.20
2019-06-07T08:10:36.435Z,2.17
2019-06-07T08:13:23.448Z,2.80
2019-06-07T08:15:34.717Z,2.37
2019-06-07T08:18:04.510Z,2.25
2019-06-07T08:20:32.947Z,2.85
2019-06-07T08:23:01.445Z,2.45
2019-06-07T08:25:29.727Z,2.50
2019-06-07T08:27:59.140Z,2.52
2019-06-07T08:33:20.197Z,2.35
2019-06-07T08:40:28.756Z,2.00
2019-06-07T08:43:13.084Z,2.00
2019-06-07T08:45:27.058Z,2.00
2019-06-07T08:47:57.998Z,2.10
2019-06-07T08:50:25.316Z,1.70
2019-06-07T08:53:00.003Z,1.90
2019-06-07T08:55:23.641Z,1.87
2019-06-07T08:57:54.518Z,1.85
2019-06-07T09:02:53.171Z,1.60
2019-06-07T09:05:21.889Z,1.40
2019-06-07T09:08:12.985Z,1.90
2019-06-07T09:10:21.277Z,1.40
2019-06-07T09:12:49.517Z,1.57
2019-06-07T09:15:23.297Z,1.57
2019-06-07T09:20:35.783Z,1.72
2019-06-07T09:22:50.437Z,2.10
2019-06-07T09:25:21.646Z,1.87
2019-06-07T09:27:49.124Z,1.60
2019-06-07T09:30:20.669Z,1.57
2019-06-07T09:32:48.907Z,1.90
2019-06-07T09:35:17.874Z,1.62
2019-06-07T09:40:27.118Z,2.15
2019-06-07T09:43:38.650Z,2.15
2019-06-07T09:45:19.526Z,2.20
2019-06-07T09:47:47.766Z,1.87
2019-06-07T09:50:16.025Z,2.10
2019-06-07T09:52:58.022Z,2.67
2019-06-07T09:55:23.727Z,2.35
2019-06-07T09:57:44.356Z,2.37
2019-06-07T10:00:38.982Z,2.10
2019-06-07T10:02:45.711Z,2.60
2019-06-07T10:05:14.949Z,2.20
2019-06-07T10:08:00.173Z,2.87
2019-06-07T10:12:44.111Z,3.10
2019-06-07T10:15:12.486Z,2.25
2019-06-07T10:17:40.742Z,2.37
2019-06-07T10:20:09.844Z,1.92
2019-06-07T10:22:38.344Z,1.92
2019-06-07T10:25:08.327Z,1.87
2019-06-07T10:27:36.605Z,1.80
2019-06-07T10:30:08.328Z,1.70
2019-06-07T10:32:36.730Z,2.05
2019-06-07T10:35:07.744Z,1.98
2019-06-07T10:37:36.865Z,2.08
2019-06-07T10:40:09.309Z,2.25
2019-06-07T10:42:37.762Z,1.57
2019-06-07T10:45:08.009Z,2.77
2019-06-07T10:47:36.417Z,2.67
2019-06-07T10:50:05.996Z,2.83
2019-06-07T10:52:34.521Z,2.20
2019-06-07T10:55:04.217Z,2.30
2019-06-07T10:57:32.869Z,2.02
2019-06-07T11:00:01.122Z,2.37
2019-06-07T11:02:29.388Z,2.67
2019-06-07T11:04:57.726Z,2.58
2019-06-07T11:07:26.031Z,2.50
2019-06-07T11:10:06.345Z,2.20
2019-06-07T11:12:24.313Z,2.60
2019-06-07T11:14:52.550Z,2.02
2019-06-07T11:17:20.821Z,2.30
2019-06-07T11:19:49.141Z,2.47
2019-06-07T11:22:18.573Z,1.98
2019-06-07T11:24:46.954Z,3.12
2019-06-07T11:27:16.431Z,2.90
2019-06-07T11:29:44.859Z,2.40
2019-06-07T11:32:14.525Z,2.33
2019-06-07T11:34:42.826Z,2.40
2019-06-07T11:37:11.610Z,2.62
2019-06-07T11:39:41.069Z,2.40
2019-06-07T11:42:09.920Z,2.20
2019-06-07T11:44:53.184Z,2.70
2019-06-07T11:47:08.337Z,2.40
2019-06-07T11:49:36.601Z,2.50
2019-06-07T11:52:04.847Z,2.35
2019-06-07T11:54:33.108Z,2.35
2019-06-07T11:57:01.349Z,2.42
2019-06-07T11:59:29.618Z,2.30
2019-06-07T12:01:57.886Z,2.60
2019-06-07T12:04:34.328Z,2.67
2019-06-07T12:06:56.096Z,2.42
2019-06-07T12:09:27.827Z,2.37
2019-06-07T12:11:54.406Z,2.30
2019-06-07T12:14:22.824Z,2.20
2019-06-07T12:16:51.144Z,2.52
2019-06-07T12:19:19.819Z,2.10
2019-06-07T12:21:48.194Z,2.65
2019-06-07T12:24:16.489Z,2.35
2019-06-07T12:26:44.725Z,2.70
2019-06-07T12:29:12.941Z,2.50
2019-06-07T12:31:41.224Z,2.12
2019-06-07T12:34:09.473Z,2.17
2019-06-07T12:36:37.730Z,2.40
2019-06-07T12:39:07.318Z,2.80
2019-06-07T12:41:35.658Z,2.73
2019-06-07T12:44:05.253Z,2.37
2019-06-07T12:46:33.574Z,2.80
2019-06-07T12:49:01.814Z,2.55
2019-06-07T12:51:30.068Z,2.05
2019-06-07T12:53:58.318Z,2.20
2019-06-07T12:56:26.591Z,2.25
2019-06-07T12:58:54.821Z,2.20
2019-06-07T13:01:24.738Z,2.10
2019-06-07T13:03:53.105Z,2.42
2019-06-07T13:06:21.716Z,2.10
2019-06-07T13:08:50.112Z,2.25
2019-06-07T13:11:24.298Z,2.08
2019-06-07T13:13:48.327Z,2.40
2019-06-07T13:16:18.013Z,2.10
2019-06-07T13:18:46.503Z,2.50
2019-06-07T13:21:16.081Z,2.00
2019-06-07T13:23:44.586Z,2.10
2019-06-07T13:26:12.860Z,2.25
2019-06-07T13:28:41.101Z,2.00
2019-06-07T13:31:09.346Z,2.25
2019-06-07T13:33:38.876Z,2.42
2019-06-07T13:36:07.462Z,2.55
2019-06-07T13:38:35.790Z,2.27
2019-06-07T13:41:04.012Z,2.10
2019-06-07T13:43:32.290Z,2.22
2019-06-07T13:46:00.532Z,2.08
2019-06-07T13:48:28.802Z,2.10
2019-06-07T13:50:57.960Z,2.20
2019-06-07T13:53:26.228Z,2.30
2019-06-07T13:55:54.495Z,1.98
2019-06-07T13:58:24.135Z,1.92
2019-06-07T14:00:52.543Z,1.90
2019-06-07T14:03:26.327Z,1.90
2019-06-07T14:05:50.784Z,1.62
2019-06-07T14:08:19.113Z,1.77
2019-06-07T14:10:47.388Z,1.72
2019-06-07T14:13:15.703Z,2.00
2019-06-07T14:15:43.961Z,1.77
2019-06-07T14:18:12.226Z,2.12
2019-06-07T14:20:40.483Z,1.90
2019-06-07T14:23:09.067Z,2.10
2019-06-07T14:25:37.321Z,2.10
2019-06-07T14:28:10.907Z,2.30
2019-06-07T14:30:35.562Z,2.05
2019-06-07T14:33:03.797Z,2.00
2019-06-07T14:35:33.686Z,1.87
2019-06-07T14:38:02.105Z,2.05
2019-06-07T14:40:31.864Z,2.02
2019-06-07T14:43:00.280Z,2.20
2019-06-07T14:45:29.695Z,1.87
2019-06-07T14:47:58.149Z,1.63
2019-06-07T14:50:26.430Z,2.00
2019-06-07T14:52:54.663Z,2.00
2019-06-07T14:55:22.918Z,2.10
2019-06-07T14:57:51.159Z,2.40
2019-06-07T15:00:19.617Z,2.00
2019-06-07T15:02:47.922Z,1.62
2019-06-07T15:05:16.189Z,1.75
2019-06-07T15:07:44.439Z,1.82
2019-06-07T15:10:12.870Z,2.10
2019-06-07T15:12:41.131Z,1.90
2019-06-07T15:15:09.757Z,1.80
2019-06-07T15:17:39.248Z,1.70
2019-06-07T15:20:08.655Z,2.10
2019-06-07T15:22:38.425Z,2.05
2019-06-07T15:25:08.654Z,1.72
2019-06-07T15:27:37.633Z,2.30
2019-06-07T15:30:10.795Z,1.90
2019-06-07T15:32:39.838Z,2.00
2019-06-07T15:35:08.464Z,1.92
2019-06-07T15:37:36.775Z,1.70
2019-06-07T15:40:05.498Z,2.33
2019-06-07T15:42:49.095Z,1.95
2019-06-07T15:45:07.768Z,2.30
2019-06-07T15:47:36.031Z,2.17
2019-06-07T15:50:07.532Z,2.35
2019-06-07T15:52:35.948Z,1.92
2019-06-07T15:55:06.627Z,1.80
2019-06-07T15:57:35.194Z,2.22
2019-06-07T16:00:09.286Z,2.22
2019-06-07T16:02:37.596Z,1.70
2019-06-07T16:05:05.990Z,2.33
2019-06-07T16:07:34.252Z,2.05
2019-06-07T16:10:02.571Z,1.98
2019-06-07T16:12:30.823Z,2.17
2019-06-07T16:14:59.062Z,1.90
2019-06-07T16:17:27.329Z,2.17
2019-06-07T16:19:55.552Z,2.00
2019-06-07T16:22:23.810Z,1.92
2019-06-07T16:24:52.052Z,2.20
2019-06-07T16:27:20.316Z,2.15
2019-06-07T16:29:48.567Z,1.82
2019-06-07T16:32:16.887Z,2.40
2019-06-07T16:34:46.030Z,1.77
2019-06-07T16:37:14.459Z,2.05
2019-06-07T16:39:42.741Z,1.90
2019-06-07T16:42:10.977Z,2.15
2019-06-07T16:44:40.520Z,1.80
2019-06-07T16:47:08.974Z,2.05
2019-06-07T16:49:38.625Z,1.65
2019-06-07T16:52:07.079Z,1.92
2019-06-07T16:54:35.726Z,2.08
2019-06-07T16:57:04.200Z,1.80
2019-06-07T16:59:32.460Z,1.82
2019-06-07T17:02:00.689Z,2.20
2019-06-07T17:04:28.959Z,2.10
2019-06-07T17:06:57.220Z,2.10
2019-06-07T17:09:25.483Z,1.92
2019-06-07T17:11:53.807Z,1.98
2019-06-07T17:14:22.057Z,2.50
2019-06-07T17:16:50.406Z,2.72
2019-06-07T17:19:18.753Z,3.27
2019-06-07T17:21:47.565Z,4.55
2019-06-07T17:24:15.940Z,4.30
2019-06-07T17:26:45.432Z,4.40
2019-06-07T17:29:13.817Z,3.80
2019-06-07T17:31:42.059Z,3.83
2019-06-07T17:34:10.333Z,3.47
2019-06-07T17:36:38.577Z,3.02
2019-06-07T17:39:08.186Z,2.52
2019-06-07T17:41:50.524Z,2.55
2019-06-07T17:44:06.723Z,3.00
2019-06-07T17:46:35.047Z,2.12
2019-06-07T17:49:03.278Z,2.20
2019-06-07T17:51:31.565Z,1.92
2019-06-07T17:53:59.814Z,1.37
2019-06-07T17:56:28.086Z,1.60
2019-06-07T17:58:56.339Z,1.40
2019-06-07T18:01:24.603Z,1.20
2019-06-07T18:03:53.217Z,1.25
2019-06-07T18:06:21.653Z,1.27
2019-06-07T18:08:49.895Z,1.47
2019-06-07T18:11:18.178Z,1.17
2019-06-07T18:13:46.412Z,1.12
2019-06-07T18:16:14.680Z,0.82
2019-06-07T18:18:42.904Z,0.98
2019-06-07T18:21:11.148Z,0.78
2019-06-07T18:23:39.402Z,0.80
2019-06-07T18:26:07.648Z,0.70
2019-06-07T18:28:35.878Z,1.10
2019-06-07T18:31:04.405Z,1.10
2019-06-07T18:33:32.650Z,0.80
2019-06-07T18:36:00.938Z,0.88
2019-06-07T18:38:29.166Z,0.70
2019-06-07T18:40:57.423Z,0.60
2019-06-07T18:43:25.656Z,0.65
2019-06-07T18:45:53.900Z,0.90
2019-06-07T18:48:22.170Z,0.72
2019-06-07T18:50:50.887Z,0.70
2019-06-07T18:53:19.144Z,0.40
2019-06-07T18:55:47.825Z,0.50
2019-06-07T18:58:16.202Z,0.40
2019-06-07T19:00:44.448Z,0.45
2019-06-07T19:03:12.738Z,0.40
2019-06-07T19:05:40.989Z,0.33
2019-06-07T19:08:09.278Z,0.40
2019-06-07T19:10:37.578Z,0.60
2019-06-07T19:13:05.846Z,0.80
2019-06-07T19:15:34.088Z,0.30
2019-06-07T19:18:02.353Z,0.40
2019-06-07T19:20:30.585Z,0.40
2019-06-07T19:22:58.859Z,0.40
2019-06-07T19:25:27.118Z,0.42
2019-06-07T19:27:56.897Z,0.50
2019-06-07T19:30:25.416Z,0.40
2019-06-07T19:32:54.973Z,0.30
2019-06-07T19:35:23.409Z,0.30
2019-06-07T19:37:51.887Z,0.30
2019-06-07T19:40:20.286Z,0.35
2019-06-07T19:42:48.524Z,0.60
2019-06-07T19:45:29.555Z,0.40
2019-06-07T19:47:46.891Z,0.65
2019-06-07T19:50:15.162Z,0.70
2019-06-07T19:52:43.436Z,0.40
2019-06-07T19:55:11.721Z,0.35
2019-06-07T19:57:39.984Z,0.40
2019-06-07T20:00:13.857Z,0.20
2019-06-07T20:02:38.609Z,0.40
2019-06-07T20:05:10.137Z,0.40
2019-06-07T20:07:38.383Z,0.30
2019-06-07T20:10:06.639Z,0.40
2019-06-07T20:12:34.882Z,0.20
2019-06-07T20:15:25.273Z,0.42
2019-06-07T20:17:34.185Z,0.33
2019-06-07T20:20:02.853Z,0.30
2019-06-07T20:22:31.175Z,0.60
2019-06-07T20:25:00.521Z,0.42
2019-06-07T20:27:29.111Z,0.45
2019-06-07T20:29:58.180Z,0.30
2019-06-07T20:32:26.471Z,0.50
2019-06-07T20:34:54.818Z,0.33
2019-06-07T20:37:23.047Z,0.30
2019-06-07T20:39:51.380Z,0.40
2019-06-07T20:42:19.629Z,0.33
2019-06-07T20:44:48.041Z,0.30
2019-06-07T20:47:16.323Z,0.50
2019-06-07T20:49:44.625Z,0.40
2019-06-07T20:52:12.912Z,0.42
2019-06-07T20:54:41.141Z,0.42
2019-06-07T20:57:09.422Z,0.30
2019-06-07T20:59:37.814Z,0.50
2019-06-07T21:02:07.204Z,0.47
2019-06-07T21:04:35.596Z,0.50
2019-06-07T21:07:03.848Z,0.40
2019-06-07T21:09:32.086Z,0.40
2019-06-07T21:12:01.568Z,0.33
2019-06-07T21:14:30.033Z,0.40
2019-06-07T21:16:58.289Z,0.20
2019-06-07T21:19:26.553Z,0.40
2019-06-07T21:21:54.822Z,0.40
2019-06-07T21:24:23.072Z,0.25
2019-06-07T21:26:53.388Z,0.30
2019-06-07T21:29:21.309Z,0.42
2019-06-07T21:31:49.626Z,0.40
2019-06-07T21:34:17.869Z,0.40
2019-06-07T21:36:46.133Z,0.40
2019-06-07T21:39:14.397Z,0.30
2019-06-07T21:41:42.652Z,0.30
2019-06-07T21:44:12.283Z,0.50
2019-06-07T21:46:40.663Z,0.90
2019-06-07T21:49:08.906Z,0.40
2019-06-07T21:51:37.142Z,0.50
2019-06-07T21:54:08.119Z,0.60
2019-06-07T21:56:35.374Z,0.50
2019-06-07T21:59:04.985Z,0.30
2019-06-07T22:01:34.381Z,0.30
2019-06-07T22:04:03.493Z,0.30
2019-06-07T22:06:31.972Z,0.50
2019-06-07T22:09:00.287Z,0.33
2019-06-07T22:11:28.602Z,0.40
2019-06-07T22:13:56.859Z,0.65
2019-06-07T22:16:29.231Z,0.60
2019-06-07T22:18:55.096Z,0.40
2019-06-07T22:21:23.336Z,0.40
2019-06-07T22:23:51.603Z,0.40
2019-06-07T22:26:19.843Z,0.70
2019-06-07T22:28:48.182Z,0.60
2019-06-07T22:31:16.441Z,0.55
2019-06-07T22:33:44.705Z,0.37
2019-06-07T22:36:13.269Z,0.70
2019-06-07T22:38:41.669Z,0.50
2019-06-07T22:41:09.907Z,0.50
2019-06-07T22:43:38.177Z,0.33
2019-06-07T22:46:06.757Z,0.45
2019-06-07T22:48:35.194Z,0.40
2019-06-07T22:51:07.314Z,0.25
2019-06-07T22:53:36.767Z,0.55
2019-06-07T22:56:07.741Z,0.60
2019-06-07T22:58:36.106Z,0.50
2019-06-07T23:01:04.365Z,0.47
2019-06-07T23:03:32.581Z,0.37
2019-06-07T23:06:00.924Z,0.70
2019-06-07T23:08:29.164Z,0.60
2019-06-07T23:10:57.551Z,0.70
2019-06-07T23:13:25.783Z,0.50
2019-06-07T23:15:54.046Z,0.72
2019-06-07T23:18:22.272Z,0.50
2019-06-07T23:20:50.691Z,0.70
2019-06-07T23:23:19.966Z,0.68
2019-06-07T23:25:48.461Z,0.50
2019-06-07T23:28:16.708Z,0.70
2019-06-07T23:30:44.990Z,0.40
2019-06-07T23:33:13.303Z,0.60
2019-06-07T23:35:41.555Z,0.62
2019-06-07T23:38:10.840Z,0.68
2019-06-07T23:40:39.135Z,0.57
2019-06-07T23:43:07.373Z,0.90
2019-06-07T23:45:35.623Z,0.50
2019-06-07T23:48:03.876Z,0.70
2019-06-07T23:50:32.137Z,0.53
2019-06-07T23:53:00.370Z,0.53
2019-06-07T23:55:28.625Z,0.68
2019-06-07T23:57:56.932Z,0.50
